Time;durP1;ratioP1;P1;durP2;ratioP2;P2;SDS_P1;SDS_P2;PMS_P1;PMS_P2;Temp;Humidity;BMP_temperature;BMP_pressure;BME280_temperature;BME280_humidity;BME280_pressure;Samples;Min_cycle;Max_cycle;Signal;HPM_P1;HPM_P2
2023/07/07 00:00:14;;;;;;;4.20;4.10;;;17.40;99.90;;;;;;5023844;28;20260;-67
2023/07/07 00:02:40;;;;;;;4.50;4.30;;;17.40;99.90;;;;;;5013299;28;20251;-67
2023/07/07 00:05:09;;;;;;;4.53;4.32;;;17.40;99.90;;;;;;5012253;28;20620;-67
2023/07/07 00:07:36;;;;;;;4.10;3.97;;;17.40;99.90;;;;;;5012180;28;20201;-67
2023/07/07 00:10:03;;;;;;;4.25;4.15;;;17.40;99.90;;;;;;5011637;28;20546;-67
2023/07/07 00:12:30;;;;;;;4.10;4.00;;;17.40;99.90;;;;;;5044905;28;20205;-68
2023/07/07 00:14:57;;;;;;;4.38;4.28;;;17.40;99.90;;;;;;5021745;28;20209;-67
2023/07/07 00:17:24;;;;;;;4.93;4.72;;;17.30;99.90;;;;;;5014008;28;20668;-67
2023/07/07 00:19:51;;;;;;;4.80;4.60;;;17.30;99.90;;;;;;5012175;28;20705;-66
2023/07/07 00:22:20;;;;;;;4.07;3.97;;;17.30;99.90;;;;;;5012855;28;20205;-66
2023/07/07 00:24:46;;;;;;;4.50;4.40;;;17.30;99.90;;;;;;5021836;28;20315;-66
2023/07/07 00:27:15;;;;;;;4.28;4.18;;;17.30;99.90;;;;;;5024929;28;20218;-63
2023/07/07 00:29:42;;;;;;;4.30;4.20;;;17.20;99.90;;;;;;5029909;28;20724;-65
2023/07/07 00:32:09;;;;;;;4.70;4.50;;;17.20;99.90;;;;;;5026069;28;20296;-67
2023/07/07 00:34:36;;;;;;;4.82;4.63;;;17.30;99.90;;;;;;5032456;28;20203;-65
2023/07/07 00:37:03;;;;;;;4.93;4.80;;;17.20;99.90;;;;;;5031589;28;20196;-67
2023/07/07 00:39:31;;;;;;;4.85;4.65;;;17.10;99.90;;;;;;5028922;28;20228;-66
2023/07/07 00:41:58;;;;;;;5.45;5.25;;;17.10;99.90;;;;;;5010986;28;20256;-64
2023/07/07 00:44:28;;;;;;;4.95;4.75;;;17.20;99.90;;;;;;5010928;28;20312;-66
2023/07/07 00:46:55;;;;;;;4.82;4.63;;;17.20;99.90;;;;;;5010783;28;20212;-67
2023/07/07 00:49:23;;;;;;;5.10;4.90;;;17.20;99.90;;;;;;5009517;28;20229;-67
2023/07/07 00:51:56;;;;;;;4.38;4.22;;;17.20;99.90;;;;;;5010754;28;20205;-67
2023/07/07 00:54:27;;;;;;;4.43;4.32;;;17.20;99.90;;;;;;5028781;28;20250;-66
2023/07/07 00:56:56;;;;;;;5.10;4.90;;;17.10;99.90;;;;;;5050174;28;20290;-65
2023/07/07 00:59:27;;;;;;;6.20;6.00;;;17.10;99.90;;;;;;5049384;28;20581;-66
2023/07/07 01:01:56;;;;;;;7.85;7.55;;;17.10;99.90;;;;;;5050703;28;20212;-67
2023/07/07 01:04:24;;;;;;;5.85;5.65;;;17.10;99.90;;;;;;5050557;28;20228;-68
2023/07/07 01:06:57;;;;;;;6.18;5.97;;;17.00;99.90;;;;;;5050330;28;20610;-67
2023/07/07 01:09:23;;;;;;;4.97;4.78;;;17.00;99.90;;;;;;5049585;28;20227;-65
2023/07/07 01:11:50;;;;;;;4.80;4.70;;;17.00;99.90;;;;;;5051567;28;20604;-66
2023/07/07 01:14:22;;;;;;;5.40;5.20;;;17.10;99.90;;;;;;5036317;28;20224;-69
2023/07/07 01:16:58;;;;;;;4.82;4.63;;;16.90;99.90;;;;;;5031234;28;20196;-65
2023/07/07 01:20:12;;;;;;;5.10;4.80;;;16.90;99.90;;;;;;5026590;28;20240;-68
2023/07/07 01:23:04;;;;;;;4.70;4.60;;;17.00;99.90;;;;;;4997879;28;20733;-64
2023/07/07 01:25:45;;;;;;;4.70;4.60;;;17.00;99.90;;;;;;5011185;28;20644;-66
2023/07/07 01:28:31;;;;;;;4.45;4.35;;;17.00;99.90;;;;;;5010457;28;20691;-64
2023/07/07 01:31:03;;;;;;;4.85;4.65;;;16.90;99.90;;;;;;5013810;28;20225;-71
2023/07/07 01:33:32;;;;;;;5.15;4.95;;;16.90;99.90;;;;;;5033543;28;20200;-65
2023/07/07 01:35:59;;;;;;;4.70;4.50;;;17.10;99.90;;;;;;5030185;28;20204;-65
2023/07/07 01:38:35;;;;;;;4.57;4.47;;;17.00;99.90;;;;;;5030416;28;20205;-64
2023/07/07 01:41:14;;;;;;;4.60;4.40;;;17.00;99.90;;;;;;5029384;28;20733;-66
2023/07/07 01:43:46;;;;;;;4.70;4.50;;;17.00;99.90;;;;;;5036705;28;20215;-66
2023/07/07 01:46:22;;;;;;;4.78;4.57;;;17.00;99.90;;;;;;5048532;28;20189;-65
2023/07/07 01:48:53;;;;;;;5.20;5.00;;;17.10;99.90;;;;;;5033764;28;20227;-65
2023/07/07 01:51:24;;;;;;;4.88;4.70;;;17.10;99.90;;;;;;5030533;28;20315;-65
2023/07/07 01:53:53;;;;;;;5.20;5.00;;;17.10;99.90;;;;;;5031874;28;20201;-63
2023/07/07 01:56:24;;;;;;;4.88;4.68;;;17.10;99.90;;;;;;5041374;28;20684;-66
2023/07/07 01:58:52;;;;;;;5.05;4.85;;;17.10;99.90;;;;;;5038296;28;20578;-64
2023/07/07 02:01:21;;;;;;;5.20;4.93;;;17.00;99.90;;;;;;5034687;28;20225;-64
2023/07/07 02:03:48;;;;;;;4.38;4.28;;;17.10;99.90;;;;;;5035626;28;20216;-66
2023/07/07 02:06:15;;;;;;;4.70;4.60;;;17.00;99.90;;;;;;5034695;28;20212;-65
2023/07/07 02:08:42;;;;;;;5.28;5.07;;;17.00;99.90;;;;;;5035155;28;20656;-65
2023/07/07 02:11:09;;;;;;;5.30;5.10;;;17.00;99.90;;;;;;5034300;28;20326;-65
2023/07/07 02:13:36;;;;;;;5.28;4.97;;;17.00;99.90;;;;;;5034570;28;20209;-66
2023/07/07 02:16:04;;;;;;;5.22;5.03;;;17.00;99.90;;;;;;5034356;28;20274;-63
2023/07/07 02:18:37;;;;;;;5.18;4.97;;;17.00;99.90;;;;;;5034701;28;20208;-66
2023/07/07 02:21:05;;;;;;;4.80;4.60;;;17.10;99.90;;;;;;5033748;28;20326;-64
2023/07/07 02:23:31;;;;;;;5.20;5.00;;;17.10;99.90;;;;;;5034920;28;20221;-65
2023/07/07 02:25:59;;;;;;;5.35;5.15;;;17.10;99.90;;;;;;5034920;28;20671;-66
2023/07/07 02:28:26;;;;;;;5.18;4.97;;;17.10;99.90;;;;;;5034585;28;20219;-63
2023/07/07 02:30:53;;;;;;;5.22;5.03;;;17.10;99.90;;;;;;5033009;28;20287;-64
2023/07/07 02:33:31;;;;;;;5.70;5.50;;;17.10;99.90;;;;;;5034317;28;20215;-64
2023/07/07 02:36:01;;;;;;;5.53;5.32;;;17.00;99.90;;;;;;5034002;28;20189;-66
2023/07/07 02:38:29;;;;;;;5.85;5.65;;;17.00;99.90;;;;;;5034695;28;20204;-64
2023/07/07 02:40:56;;;;;;;6.13;5.93;;;17.00;99.90;;;;;;5036072;28;20229;-64
2023/07/07 02:43:23;;;;;;;5.72;5.53;;;17.20;99.90;;;;;;5035683;28;20204;-66
2023/07/07 02:45:50;;;;;;;4.80;4.70;;;17.00;99.90;;;;;;5035494;28;20311;-64
2023/07/07 02:48:20;;;;;;;20.40;19.35;;;17.00;99.90;;;;;;5038970;28;20200;-65
2023/07/07 02:50:54;;;;;;;5.80;5.35;;;17.00;99.90;;;;;;5026545;28;20225;-64
2023/07/07 02:53:23;;;;;;;6.10;5.90;;;16.90;99.90;;;;;;5014136;28;20200;-66
2023/07/07 02:55:50;;;;;;;5.40;5.20;;;16.90;99.90;;;;;;5031530;28;20209;-65
2023/07/07 02:58:17;;;;;;;5.93;5.72;;;16.90;99.90;;;;;;5035222;28;20296;-64
2023/07/07 03:00:44;;;;;;;5.60;5.40;;;16.80;99.90;;;;;;5032815;28;20736;-66
2023/07/07 03:03:11;;;;;;;5.25;5.05;;;16.90;99.90;;;;;;5035064;28;20270;-64
2023/07/07 03:05:38;;;;;;;5.97;5.78;;;16.70;99.90;;;;;;5038102;28;20223;-67
2023/07/07 03:08:05;;;;;;;6.03;5.82;;;16.70;99.90;;;;;;5054672;28;20642;-64
2023/07/07 03:10:33;;;;;;;5.60;5.40;;;16.70;99.90;;;;;;5033621;28;20319;-67
2023/07/07 03:13:00;;;;;;;5.63;5.43;;;16.60;99.90;;;;;;5032975;28;20296;-66
2023/07/07 03:15:29;;;;;;;5.65;5.45;;;16.50;99.90;;;;;;5035089;28;20578;-65
2023/07/07 03:17:56;;;;;;;6.10;5.90;;;16.50;99.90;;;;;;5047183;28;20200;-66
2023/07/07 03:20:23;;;;;;;5.88;5.68;;;16.40;99.90;;;;;;5044415;28;21024;-64
2023/07/07 03:22:50;;;;;;;5.55;5.35;;;16.40;99.90;;;;;;5036521;28;20205;-66
2023/07/07 03:25:17;;;;;;;5.68;5.47;;;16.40;99.90;;;;;;5034289;28;20271;-67
2023/07/07 03:27:45;;;;;;;5.93;5.72;;;16.30;99.90;;;;;;5035058;28;20610;-66
2023/07/07 03:30:12;;;;;;;6.57;6.38;;;16.40;99.90;;;;;;5033977;28;20228;-64
2023/07/07 03:32:39;;;;;;;6.50;6.30;;;16.40;99.90;;;;;;5028538;28;20206;-63
2023/07/07 03:35:07;;;;;;;6.88;6.63;;;16.40;99.90;;;;;;5036744;28;20200;-64
2023/07/07 03:37:34;;;;;;;6.20;6.00;;;16.40;99.90;;;;;;5044049;28;20219;-67
2023/07/07 03:40:01;;;;;;;6.30;6.10;;;16.40;99.90;;;;;;5031467;28;20308;-65
2023/07/07 03:42:28;;;;;;;6.60;6.30;;;16.30;99.90;;;;;;5013737;28;20205;-64
2023/07/07 03:44:56;;;;;;;6.53;6.32;;;16.30;99.90;;;;;;5013402;28;20236;-65
2023/07/07 03:47:23;;;;;;;6.40;6.20;;;16.30;99.90;;;;;;5013542;28;20220;-66
2023/07/07 03:49:50;;;;;;;6.90;6.70;;;16.30;99.90;;;;;;5013136;28;20307;-64
2023/07/07 03:52:17;;;;;;;6.35;6.15;;;16.30;99.90;;;;;;5013259;28;20212;-64
2023/07/07 03:54:43;;;;;;;6.80;6.60;;;16.20;99.90;;;;;;5013208;28;20205;-65
2023/07/07 03:57:11;;;;;;;6.28;6.07;;;16.20;99.90;;;;;;5013266;28;20305;-65
2023/07/07 03:59:38;;;;;;;6.63;6.38;;;16.10;99.90;;;;;;5012758;28;20229;-64
2023/07/07 04:02:07;;;;;;;6.70;6.50;;;16.10;99.90;;;;;;5013924;28;20609;-65
2023/07/07 04:04:34;;;;;;;6.85;6.65;;;16.00;99.90;;;;;;5013739;28;20225;-64
2023/07/07 04:07:01;;;;;;;6.43;6.22;;;16.10;99.90;;;;;;5013183;28;20208;-65
2023/07/07 04:09:28;;;;;;;6.75;6.55;;;16.10;99.90;;;;;;5012333;28;20221;-64
2023/07/07 04:11:55;;;;;;;6.00;5.80;;;16.10;99.90;;;;;;5013710;28;20641;-65
2023/07/07 04:14:26;;;;;;;6.13;5.93;;;16.20;99.90;;;;;;5014134;28;20292;-65
2023/07/07 04:16:52;;;;;;;6.28;6.07;;;16.10;99.90;;;;;;5013249;28;20209;-65
2023/07/07 04:19:21;;;;;;;6.28;6.07;;;16.20;99.90;;;;;;5012597;28;20235;-64
2023/07/07 04:21:48;;;;;;;6.57;6.28;;;16.10;99.90;;;;;;5026848;28;20211;-66
2023/07/07 04:24:19;;;;;;;6.30;6.10;;;16.10;99.90;;;;;;5024215;28;20226;-65
2023/07/07 04:26:47;;;;;;;6.53;6.32;;;16.10;99.90;;;;;;5029061;28;20263;-69
2023/07/07 04:29:14;;;;;;;6.80;6.50;;;16.10;99.90;;;;;;5018938;28;20263;-64
2023/07/07 04:31:45;;;;;;;6.22;6.03;;;16.20;99.90;;;;;;5032099;28;20751;-65
2023/07/07 04:34:12;;;;;;;5.68;5.47;;;16.20;99.90;;;;;;5032051;28;20316;-68
2023/07/07 04:36:41;;;;;;;5.72;5.53;;;16.20;99.90;;;;;;5032528;28;20205;-64
2023/07/07 04:39:08;;;;;;;6.10;5.88;;;16.20;99.90;;;;;;5041641;28;20273;-64
2023/07/07 04:41:35;;;;;;;5.88;5.68;;;16.20;99.90;;;;;;5036142;28;20287;-65
2023/07/07 04:44:02;;;;;;;5.82;5.63;;;16.30;99.90;;;;;;5030895;28;20266;-66
2023/07/07 04:46:31;;;;;;;5.65;5.45;;;16.30;99.90;;;;;;5016580;28;20216;-64
2023/07/07 04:48:58;;;;;;;6.95;6.60;;;16.30;99.90;;;;;;5011579;28;20209;-66
2023/07/07 04:51:25;;;;;;;6.18;5.97;;;16.30;99.90;;;;;;5014376;28;20328;-66
2023/07/07 04:53:53;;;;;;;5.80;5.60;;;16.40;99.90;;;;;;5023875;28;20292;-64
2023/07/07 04:56:22;;;;;;;5.63;5.43;;;16.50;99.90;;;;;;5029447;28;20239;-65
2023/07/07 04:58:51;;;;;;;5.80;5.60;;;16.50;99.90;;;;;;5026237;28;20200;-66
2023/07/07 05:01:20;;;;;;;6.03;5.82;;;16.60;99.90;;;;;;5030712;28;20228;-65
2023/07/07 05:03:52;;;;;;;6.00;5.80;;;16.70;99.90;;;;;;5029320;28;20242;-65
2023/07/07 05:06:20;;;;;;;6.00;5.80;;;16.80;99.90;;;;;;5027462;28;20221;-67
2023/07/07 05:08:48;;;;;;;6.97;6.78;;;16.90;99.90;;;;;;5031515;28;20211;-66
2023/07/07 05:11:18;;;;;;;6.35;6.13;;;17.00;99.90;;;;;;5030796;28;20307;-67
2023/07/07 05:13:47;;;;;;;6.05;5.85;;;17.10;99.90;;;;;;5030907;28;20191;-67
2023/07/07 05:16:16;;;;;;;6.35;6.15;;;17.20;99.90;;;;;;5032176;28;20296;-65
2023/07/07 05:18:43;;;;;;;6.22;6.03;;;17.40;99.90;;;;;;5040703;28;20244;-66
2023/07/07 05:21:13;;;;;;;6.10;5.85;;;17.50;99.90;;;;;;5038853;28;20233;-66
2023/07/07 05:23:40;;;;;;;6.15;5.85;;;17.70;99.90;;;;;;5025992;28;20207;-65
2023/07/07 05:26:07;;;;;;;6.18;5.80;;;17.80;99.90;;;;;;5022859;28;20294;-65
2023/07/07 05:28:36;;;;;;;5.78;5.57;;;18.00;99.90;;;;;;5023907;28;20289;-65
2023/07/07 05:31:05;;;;;;;5.80;5.60;;;18.20;99.90;;;;;;5020593;28;20225;-66
2023/07/07 05:33:32;;;;;;;5.70;5.50;;;18.30;99.90;;;;;;5027850;28;20287;-65
2023/07/07 05:36:04;;;;;;;7.40;7.10;;;18.50;99.90;;;;;;5029552;28;20204;-65
2023/07/07 05:38:31;;;;;;;6.47;6.22;;;18.70;99.90;;;;;;5039651;28;20259;-64
2023/07/07 05:40:58;;;;;;;6.15;5.95;;;18.80;99.90;;;;;;5027689;28;20754;-65
2023/07/07 05:43:27;;;;;;;6.57;6.38;;;19.00;99.90;;;;;;5025965;28;20785;-62
2023/07/07 05:45:58;;;;;;;6.55;6.35;;;19.20;99.90;;;;;;5028613;28;20270;-65
2023/07/07 05:48:26;;;;;;;6.72;6.43;;;19.40;99.90;;;;;;5025898;28;20289;-65
2023/07/07 05:50:54;;;;;;;7.00;6.80;;;19.60;99.90;;;;;;5017006;28;20231;-64
2023/07/07 05:53:21;;;;;;;7.28;6.97;;;19.70;99.90;;;;;;5026241;28;20668;-65
2023/07/07 05:55:48;;;;;;;6.30;6.03;;;19.90;99.90;;;;;;5032381;28;20207;-65
2023/07/07 05:58:15;;;;;;;5.72;5.53;;;20.10;99.90;;;;;;5029156;28;20314;-65
2023/07/07 06:00:42;;;;;;;6.22;6.03;;;20.40;99.90;;;;;;5023645;28;20240;-65
2023/07/07 06:03:11;;;;;;;6.30;6.10;;;20.50;99.90;;;;;;5025182;28;20201;-67
2023/07/07 06:05:38;;;;;;;6.10;5.90;;;20.70;99.90;;;;;;5024169;28;20245;-67
2023/07/07 06:08:05;;;;;;;6.50;6.30;;;20.90;99.90;;;;;;5024404;28;20233;-68
2023/07/07 06:10:32;;;;;;;6.75;6.55;;;21.00;99.90;;;;;;5021151;28;20225;-67
2023/07/07 06:13:00;;;;;;;7.00;6.78;;;21.00;99.90;;;;;;5028756;28;20231;-68
2023/07/07 06:15:27;;;;;;;7.65;7.35;;;20.90;99.90;;;;;;5023898;28;20280;-66
2023/07/07 06:17:54;;;;;;;7.60;7.32;;;20.90;99.90;;;;;;5024339;28;20295;-67
2023/07/07 06:20:22;;;;;;;8.05;7.60;;;20.80;99.90;;;;;;5021002;28;20233;-67
2023/07/07 06:22:49;;;;;;;7.90;7.60;;;20.90;99.90;;;;;;5023109;28;20196;-66
2023/07/07 06:25:16;;;;;;;7.80;7.50;;;20.90;99.90;;;;;;5024936;28;20225;-65
2023/07/07 06:27:43;;;;;;;7.25;7.05;;;21.00;99.90;;;;;;5037912;28;20265;-68
2023/07/07 06:30:11;;;;;;;8.02;7.72;;;20.90;99.90;;;;;;5035790;28;20585;-67
2023/07/07 06:32:38;;;;;;;7.65;7.35;;;20.90;99.90;;;;;;5022224;28;20204;-67
2023/07/07 06:35:05;;;;;;;7.40;7.00;;;21.00;99.90;;;;;;5018173;28;20687;-68
2023/07/07 06:37:33;;;;;;;8.40;8.10;;;21.10;99.90;;;;;;5023404;28;20196;-66
2023/07/07 06:40:00;;;;;;;7.78;7.47;;;21.00;99.90;;;;;;5020565;28;20308;-65
2023/07/07 06:42:27;;;;;;;8.07;7.57;;;21.00;99.90;;;;;;5023805;28;20197;-66
2023/07/07 06:44:53;;;;;;;7.50;7.20;;;21.10;99.90;;;;;;5024304;28;20225;-66
2023/07/07 06:47:20;;;;;;;8.07;7.77;;;21.40;99.90;;;;;;5022961;28;20200;-64
2023/07/07 06:49:47;;;;;;;8.80;8.40;;;21.60;99.90;;;;;;5024411;28;20224;-64
2023/07/07 06:52:14;;;;;;;14.88;14.30;;;21.60;99.90;;;;;;5025893;28;20232;-66
2023/07/07 06:54:42;;;;;;;7.05;6.85;;;21.60;99.90;;;;;;5025243;28;20703;-64
2023/07/07 06:57:10;;;;;;;6.82;6.55;;;21.50;99.90;;;;;;5024215;28;20208;-65
2023/07/07 06:59:38;;;;;;;10.82;10.43;;;21.50;99.90;;;;;;5028327;28;20248;-65
2023/07/07 07:02:07;;;;;;;11.20;10.80;;;21.60;99.90;;;;;;5015098;28;20205;-65
2023/07/07 07:04:33;;;;;;;11.52;11.13;;;21.60;99.90;;;;;;5031994;28;20204;-65
2023/07/07 07:07:00;;;;;;;13.27;12.77;;;21.80;99.90;;;;;;5029347;28;20229;-66
2023/07/07 07:09:27;;;;;;;35.28;33.03;;;21.90;99.90;;;;;;5018823;28;20228;-65
2023/07/07 07:11:55;;;;;;;16.55;15.95;;;21.80;99.90;;;;;;5024740;28;20299;-65
2023/07/07 07:14:22;;;;;;;10.48;10.13;;;21.90;99.90;;;;;;5023901;28;20236;-65
2023/07/07 07:16:49;;;;;;;9.10;8.75;;;21.80;99.90;;;;;;5026975;28;20205;-64
2023/07/07 07:19:16;;;;;;;8.77;8.48;;;21.80;99.90;;;;;;5024747;28;20204;-65
2023/07/07 07:21:42;;;;;;;8.60;8.30;;;22.00;99.90;;;;;;5016633;28;20528;-65
2023/07/07 07:24:09;;;;;;;8.00;7.70;;;22.10;99.90;;;;;;5035896;28;20211;-65
2023/07/07 07:26:36;;;;;;;6.93;6.72;;;22.20;99.90;;;;;;5031173;28;20222;-66
2023/07/07 07:29:04;;;;;;;8.15;7.85;;;22.30;99.90;;;;;;5033882;28;20235;-66
2023/07/07 07:31:31;;;;;;;6.78;6.57;;;22.40;99.90;;;;;;5036926;28;20196;-65
2023/07/07 07:34:23;;;;;;;7.00;6.78;;;22.50;99.90;;;;;;5032040;28;20205;-64
2023/07/07 07:36:50;;;;;;;7.00;6.80;;;22.50;99.90;;;;;;5034160;22;20237;-66
2023/07/07 07:39:17;;;;;;;8.10;7.80;;;22.70;99.90;;;;;;5017555;28;20212;-67
2023/07/07 07:41:46;;;;;;;7.60;7.30;;;22.80;99.90;;;;;;5018559;28;20205;-66
2023/07/07 07:44:14;;;;;;;7.97;7.63;;;22.90;99.90;;;;;;5020494;28;20196;-65
2023/07/07 07:46:42;;;;;;;10.23;9.88;;;23.10;99.90;;;;;;5019245;28;20239;-67
2023/07/07 07:49:09;;;;;;;8.85;8.55;;;23.20;99.90;;;;;;5016557;28;20240;-66
2023/07/07 07:51:38;;;;;;;8.75;8.45;;;23.10;99.90;;;;;;5017902;28;20319;-67
2023/07/07 07:54:06;;;;;;;8.30;7.80;;;23.10;99.90;;;;;;5018096;28;20200;-68
2023/07/07 07:56:33;;;;;;;6.80;6.60;;;23.40;99.90;;;;;;5018472;28;20308;-68
2023/07/07 07:59:00;;;;;;;6.55;6.35;;;23.50;99.90;;;;;;5018670;28;20212;-65
2023/07/07 08:01:28;;;;;;;6.50;6.30;;;23.70;99.90;;;;;;5019033;28;20271;-69
2023/07/07 08:03:55;;;;;;;7.30;7.00;;;23.70;99.90;;;;;;5018402;28;20212;-68
2023/07/07 08:06:22;;;;;;;7.57;7.28;;;23.70;99.90;;;;;;5019040;28;20227;-69
2023/07/07 08:08:49;;;;;;;7.40;7.10;;;23.90;99.90;;;;;;5019109;28;20296;-66
2023/07/07 08:11:20;;;;;;;6.80;6.57;;;23.90;99.90;;;;;;5017106;28;20209;-68
2023/07/07 08:13:47;;;;;;;7.38;7.07;;;24.10;99.90;;;;;;5016558;28;20689;-68
2023/07/07 08:16:14;;;;;;;7.40;7.10;;;24.20;99.90;;;;;;5017835;28;20225;-67
2023/07/07 08:18:42;;;;;;;7.35;7.05;;;24.30;99.90;;;;;;5010452;28;20205;-69
2023/07/07 08:21:09;;;;;;;8.85;8.55;;;24.30;99.90;;;;;;5015953;28;20208;-67
2023/07/07 08:23:36;;;;;;;9.07;8.77;;;24.30;99.90;;;;;;5017984;28;20254;-69
2023/07/07 08:26:03;;;;;;;8.90;8.52;;;24.50;99.90;;;;;;5016638;28;20315;-68
2023/07/07 08:28:30;;;;;;;9.02;8.65;;;24.70;99.90;;;;;;5017023;28;20236;-68
2023/07/07 08:30:57;;;;;;;8.38;8.07;;;24.80;99.90;;;;;;5019822;28;20201;-66
2023/07/07 08:33:23;;;;;;;8.40;8.10;;;24.90;99.90;;;;;;5021048;28;20395;-65
2023/07/07 08:35:52;;;;;;;7.93;7.45;;;25.00;99.90;;;;;;5019562;28;20235;-67
2023/07/07 08:38:18;;;;;;;8.13;7.82;;;25.00;99.90;;;;;;5019475;28;20204;-67
2023/07/07 08:40:48;;;;;;;8.00;7.70;;;25.10;99.90;;;;;;5017717;28;20215;-66
2023/07/07 08:43:17;;;;;;;8.32;8.02;;;25.30;99.90;;;;;;5018214;28;20208;-66
2023/07/07 08:45:52;;;;;;;9.00;8.70;;;25.30;99.90;;;;;;5020543;28;20328;-66
2023/07/07 08:48:26;;;;;;;8.77;8.38;;;25.40;99.90;;;;;;5034162;28;20916;-66
2023/07/07 08:50:58;;;;;;;8.10;7.70;;;25.50;99.90;;;;;;5035523;28;20263;-67
2023/07/07 08:53:38;;;;;;;7.88;7.57;;;25.50;99.90;;;;;;5036416;28;20231;-67
2023/07/07 08:56:13;;;;;;;7.57;7.28;;;25.60;99.90;;;;;;5021065;28;20242;-67
2023/07/07 08:58:50;;;;;;;7.10;6.90;;;25.70;99.90;;;;;;5020262;28;20201;-66
2023/07/07 09:01:29;;;;;;;8.15;7.72;;;25.80;99.90;;;;;;5018698;28;20303;-67
2023/07/07 09:04:09;;;;;;;8.30;8.00;;;26.00;99.90;;;;;;5019386;28;20208;-68
2023/07/07 09:06:52;;;;;;;8.63;8.32;;;26.10;99.90;;;;;;5020438;28;20243;-67
2023/07/07 09:09:32;;;;;;;10.10;9.77;;;26.20;99.90;;;;;;5020923;28;20848;-67
2023/07/07 09:12:08;;;;;;;8.80;8.50;;;26.10;99.90;;;;;;5022612;28;20714;-67
2023/07/07 09:14:36;;;;;;;8.00;7.70;;;26.20;99.90;;;;;;5022532;28;20197;-66
2023/07/07 09:17:11;;;;;;;7.28;6.97;;;26.20;99.90;;;;;;5020657;28;20303;-66
2023/07/07 09:19:42;;;;;;;8.90;8.52;;;26.30;99.90;;;;;;5021895;28;20303;-66
2023/07/07 09:22:23;;;;;;;8.60;8.30;;;26.40;99.90;;;;;;5023099;28;20196;-65
2023/07/07 09:24:54;;;;;;;8.25;7.95;;;26.40;99.90;;;;;;5023545;28;20205;-68
2023/07/07 09:27:27;;;;;;;8.18;7.88;;;26.50;99.90;;;;;;5022594;28;20218;-65
2023/07/07 09:30:02;;;;;;;8.63;8.32;;;26.60;99.90;;;;;;5019901;28;20217;-66
2023/07/07 09:32:29;;;;;;;7.50;7.20;;;26.60;99.90;;;;;;5023171;28;20643;-66
2023/07/07 09:34:56;;;;;;;7.88;7.57;;;26.70;99.90;;;;;;5023050;28;20204;-66
2023/07/07 09:37:34;;;;;;;8.20;7.90;;;27.00;99.90;;;;;;5034307;28;20248;-66
2023/07/07 09:40:14;;;;;;;8.30;8.00;;;27.10;99.90;;;;;;5027412;28;20229;-66
2023/07/07 09:42:52;;;;;;;7.90;7.60;;;27.20;99.90;;;;;;5012962;28;20259;-67
2023/07/07 09:45:31;;;;;;;7.93;7.63;;;27.20;99.90;;;;;;5017631;28;20193;-66
2023/07/07 09:48:11;;;;;;;8.30;8.00;;;27.00;99.90;;;;;;5014657;28;20197;-66
2023/07/07 09:50:45;;;;;;;8.60;8.30;;;27.10;99.90;;;;;;5012585;28;20292;-65
2023/07/07 09:53:18;;;;;;;8.77;8.48;;;27.40;99.90;;;;;;5010768;28;20211;-67
2023/07/07 09:55:45;;;;;;;8.27;7.97;;;27.60;99.90;;;;;;5009540;28;20221;-66
2023/07/07 09:58:17;;;;;;;7.90;7.60;;;27.70;99.90;;;;;;5006888;28;20256;-67
2023/07/07 10:00:48;;;;;;;7.75;7.45;;;27.70;99.90;;;;;;5009607;28;20205;-67
2023/07/07 10:03:22;;;;;;;7.82;7.53;;;27.90;99.90;;;;;;5014959;28;20198;-66
2023/07/07 10:05:50;;;;;;;8.32;8.02;;;28.00;99.90;;;;;;5015086;28;20239;-67
2023/07/07 10:08:18;;;;;;;8.50;8.20;;;28.20;99.90;;;;;;5012456;28;20274;-66
2023/07/07 10:10:55;;;;;;;8.63;8.32;;;28.30;99.90;;;;;;5011910;28;20279;-65
2023/07/07 10:13:22;;;;;;;7.93;7.63;;;28.30;99.90;;;;;;5012341;28;20189;-67
2023/07/07 10:15:54;;;;;;;7.75;7.45;;;28.50;99.90;;;;;;5012577;28;20584;-67
2023/07/07 10:18:24;;;;;;;8.75;8.45;;;28.50;99.90;;;;;;5003924;28;20233;-69
2023/07/07 10:20:52;;;;;;;8.70;8.40;;;28.70;99.90;;;;;;5013363;28;20197;-65
2023/07/07 10:23:20;;;;;;;8.82;8.52;;;28.70;99.90;;;;;;5013336;28;20262;-66
2023/07/07 10:25:47;;;;;;;8.10;7.80;;;28.80;99.90;;;;;;5011787;28;20673;-67
2023/07/07 10:28:16;;;;;;;8.00;7.70;;;28.80;99.90;;;;;;5012748;28;20202;-67
2023/07/07 10:30:43;;;;;;;8.20;7.90;;;28.90;99.90;;;;;;5014225;28;20209;-67
2023/07/07 10:33:13;;;;;;;7.93;7.63;;;28.80;99.90;;;;;;5009932;28;20212;-66
2023/07/07 10:35:40;;;;;;;8.43;8.13;;;29.00;99.90;;;;;;5009534;28;20233;-67
2023/07/07 10:38:09;;;;;;;8.95;8.55;;;29.10;99.90;;;;;;5007171;28;20199;-66
2023/07/07 10:40:38;;;;;;;9.32;8.93;;;29.30;99.90;;;;;;5009672;28;20804;-69
2023/07/07 10:43:07;;;;;;;8.27;7.97;;;29.40;99.90;;;;;;5014587;28;20292;-68
2023/07/07 10:45:33;;;;;;;8.43;8.13;;;29.50;99.90;;;;;;5013395;28;20326;-66
2023/07/07 10:48:00;;;;;;;8.10;7.80;;;29.60;99.90;;;;;;5009571;28;20324;-69
2023/07/07 10:50:33;;;;;;;7.72;7.43;;;29.70;99.90;;;;;;5013707;28;20237;-66
2023/07/07 10:53:18;;;;;;;7.82;7.43;;;29.80;99.90;;;;;;5010512;28;20273;-66
2023/07/07 10:56:02;;;;;;;8.75;8.38;;;29.80;99.90;;;;;;5014501;28;20218;-66
2023/07/07 10:58:41;;;;;;;8.48;8.18;;;29.70;99.90;;;;;;5013239;28;20660;-67
2023/07/07 11:01:15;;;;;;;8.25;7.95;;;29.70;99.90;;;;;;5009000;28;20201;-68
2023/07/07 11:04:20;;;;;;;8.65;8.32;;;29.90;99.90;;;;;;5013274;28;20193;-65
2023/07/07 11:06:59;;;;;;;8.98;8.68;;;29.90;99.90;;;;;;5002102;28;20236;-66
2023/07/07 11:09:43;;;;;;;8.80;8.50;;;30.20;99.90;;;;;;5006517;28;20279;-66
2023/07/07 11:12:24;;;;;;;8.95;8.65;;;30.20;99.90;;;;;;5007157;28;20204;-67
2023/07/07 11:15:01;;;;;;;8.15;7.85;;;30.10;99.90;;;;;;5006369;28;20201;-69
2023/07/07 11:17:48;;;;;;;8.40;8.10;;;30.30;99.90;;;;;;5003916;28;20224;-69
2023/07/07 11:20:38;;;;;;;8.63;8.32;;;30.50;99.90;;;;;;5005538;28;20690;-69
2023/07/07 11:23:24;;;;;;;8.20;7.90;;;30.50;99.90;;;;;;5010597;28;20292;-70
2023/07/07 11:26:00;;;;;;;9.30;9.00;;;30.70;99.90;;;;;;5000537;28;20221;-70
2023/07/07 11:28:37;;;;;;;8.70;8.40;;;30.70;99.90;;;;;;5010438;28;20205;-70
2023/07/07 11:31:20;;;;;;;8.00;7.70;;;30.70;99.90;;;;;;4995552;28;20846;-70
2023/07/07 11:33:59;;;;;;;8.80;8.50;;;30.70;99.90;;;;;;5010135;28;20213;-70
2023/07/07 11:36:49;;;;;;;8.68;8.38;;;30.60;99.90;;;;;;5002714;28;20336;-69
2023/07/07 11:39:36;;;;;;;9.85;9.45;;;30.60;99.90;;;;;;5006708;28;20292;-70
2023/07/07 11:42:21;;;;;;;8.75;8.45;;;30.70;99.90;;;;;;5010230;28;20225;-70
2023/07/07 11:45:01;;;;;;;8.05;7.75;;;30.80;99.90;;;;;;5012670;28;20276;-68
2023/07/07 11:47:47;;;;;;;8.80;8.50;;;31.00;99.90;;;;;;5012671;28;20227;-70
2023/07/07 11:50:31;;;;;;;8.98;8.68;;;31.20;99.90;;;;;;5010304;28;20954;-70
2023/07/07 11:53:13;;;;;;;8.70;8.40;;;31.00;99.90;;;;;;5005644;28;20221;-70
2023/07/07 11:56:00;;;;;;;8.30;8.00;;;31.10;99.90;;;;;;5008144;28;20248;-68
2023/07/07 11:58:37;;;;;;;8.40;8.10;;;31.10;99.90;;;;;;5009508;28;20281;-70
2023/07/07 12:01:13;;;;;;;8.77;8.48;;;31.20;99.90;;;;;;5008403;28;20193;-71
2023/07/07 12:03:50;;;;;;;9.00;8.70;;;31.20;99.90;;;;;;5008949;28;20247;-67
2023/07/07 12:06:24;;;;;;;8.20;7.90;;;31.20;99.90;;;;;;5011937;28;20291;-70
2023/07/07 12:09:00;;;;;;;8.48;8.18;;;31.10;99.90;;;;;;5010767;28;20201;-70
2023/07/07 12:11:30;;;;;;;8.80;8.40;;;31.30;99.90;;;;;;5007927;28;20225;-69
2023/07/07 12:14:08;;;;;;;9.13;8.82;;;31.40;99.90;;;;;;5011644;28;20197;-69
2023/07/07 12:16:41;;;;;;;8.80;8.50;;;31.50;99.90;;;;;;5011491;28;20412;-70
2023/07/07 12:19:18;;;;;;;9.48;9.18;;;31.50;99.90;;;;;;5011002;28;20204;-68
2023/07/07 12:21:47;;;;;;;8.45;8.15;;;31.60;99.90;;;;;;5009515;28;20225;-70
2023/07/07 12:24:20;;;;;;;9.88;9.48;;;31.80;99.90;;;;;;5011638;28;20870;-68
2023/07/07 12:26:52;;;;;;;9.77;9.38;;;32.00;99.90;;;;;;5012074;28;20319;-68
2023/07/07 12:29:19;;;;;;;11.38;10.98;;;32.10;99.90;;;;;;5010594;28;20216;-66
2023/07/07 12:31:49;;;;;;;11.52;11.13;;;32.20;99.90;;;;;;5011577;28;20219;-71
2023/07/07 12:34:36;;;;;;;11.07;10.68;;;32.20;99.90;;;;;;5012708;28;20201;-68
2023/07/07 12:37:04;;;;;;;11.45;11.05;;;32.10;99.90;;;;;;5010514;28;20714;-66
2023/07/07 12:39:31;;;;;;;12.00;11.60;;;32.20;99.90;;;;;;5012028;28;20600;-69
2023/07/07 12:41:58;;;;;;;12.32;11.82;;;32.30;99.90;;;;;;5012393;28;20220;-69
2023/07/07 12:44:26;;;;;;;12.18;11.77;;;32.60;99.90;;;;;;5012176;28;20208;-69
2023/07/07 12:46:58;;;;;;;11.02;10.63;;;32.70;99.90;;;;;;5012375;28;20774;-70
2023/07/07 12:49:28;;;;;;;18.88;18.20;;;32.70;99.80;;;;;;5008096;28;20272;-69
2023/07/07 12:51:58;;;;;;;14.60;14.00;;;32.50;99.20;;;;;;5011698;28;20691;-68
2023/07/07 12:54:35;;;;;;;13.52;12.93;;;32.50;99.70;;;;;;5010863;28;20201;-68
2023/07/07 12:57:04;;;;;;;16.30;15.70;;;32.50;99.60;;;;;;5005111;28;20220;-68
2023/07/07 12:59:38;;;;;;;15.27;14.70;;;32.70;99.20;;;;;;5008518;28;20279;-69
2023/07/07 13:02:18;;;;;;;16.05;15.45;;;32.70;99.10;;;;;;5009605;28;20284;-68